createdAt,value
2023-01-13T00:01:31.805Z,-3.96
2023-01-13T00:04:01.089Z,-3.72
2023-01-13T00:06:30.975Z,-4.14
2023-01-13T00:08:59.441Z,-3.89
2023-01-13T00:11:27.869Z,-4.05
2023-01-13T00:13:56.378Z,-4.33
2023-01-13T00:16:24.547Z,-4.24
2023-01-13T00:18:52.967Z,-4.00
2023-01-13T00:21:23.174Z,-3.40
2023-01-13T00:23:55.155Z,-3.95
2023-01-13T00:26:26.607Z,-3.67
2023-01-13T00:28:58.995Z,-4.04
2023-01-13T00:31:28.740Z,-4.08
2023-01-13T00:33:58.441Z,-3.77
2023-01-13T00:36:27.063Z,-3.58
2023-01-13T00:38:56.607Z,-3.48
2023-01-13T00:41:26.889Z,-4.39
2023-01-13T00:43:54.360Z,-4.16
2023-01-13T00:46:24.065Z,-4.24
2023-01-13T00:48:53.024Z,-4.24
2023-01-13T00:51:22.880Z,-4.29
2023-01-13T00:53:52.976Z,-4.28
2023-01-13T00:56:39.156Z,-4.42
2023-01-13T00:59:09.536Z,-4.20
2023-01-13T01:01:38.071Z,-4.12
2023-01-13T01:04:06.775Z,-3.75
2023-01-13T01:06:35.451Z,-4.08
2023-01-13T01:09:04.161Z,-3.96
2023-01-13T01:11:35.022Z,-3.74
2023-01-13T01:14:05.176Z,-3.33
2023-01-13T01:16:35.339Z,-4.01
2023-01-13T01:19:05.225Z,-3.83
2023-01-13T01:21:36.741Z,-4.83
2023-01-13T01:24:06.273Z,-3.93
2023-01-13T01:26:36.121Z,-3.65
2023-01-13T01:29:04.602Z,-3.38
2023-01-13T01:31:33.596Z,-4.25
2023-01-13T01:34:03.295Z,-3.75
2023-01-13T01:36:31.979Z,-3.78
2023-01-13T01:39:01.210Z,-3.55
2023-01-13T01:41:32.037Z,-3.60
2023-01-13T01:44:07.291Z,-3.81
2023-01-13T01:46:38.187Z,-4.65
2023-01-13T01:49:19.116Z,-4.92
2023-01-13T01:51:51.344Z,-3.80
2023-01-13T01:54:25.921Z,-3.39
2023-01-13T01:56:54.726Z,-3.37
2023-01-13T01:59:30.020Z,-4.04
2023-01-13T02:01:58.601Z,-4.63
2023-01-13T02:04:29.832Z,-4.22
2023-01-13T02:06:59.268Z,-3.88
2023-01-13T02:09:29.154Z,-3.67
2023-01-13T02:12:15.222Z,-3.53
2023-01-13T02:14:45.926Z,-3.62
2023-01-13T02:17:28.571Z,-3.89
2023-01-13T02:20:25.475Z,-3.37
2023-01-13T02:23:46.695Z,-3.19
2023-01-13T02:26:38.136Z,-3.68
2023-01-13T02:29:34.752Z,-3.70
2023-01-13T02:32:13.107Z,-3.44
2023-01-13T02:34:43.699Z,-3.07
2023-01-13T02:37:18.100Z,-3.68
2023-01-13T02:39:56.486Z,-3.39
2023-01-13T02:42:44.407Z,-2.71
2023-01-13T02:45:17.739Z,-3.24
2023-01-13T02:47:50.779Z,-3.64
2023-01-13T02:50:22.065Z,-3.69
2023-01-13T02:52:55.165Z,-4.38
2023-01-13T02:55:28.111Z,-4.16
2023-01-13T02:57:59.838Z,-3.87
2023-01-13T03:00:29.237Z,-4.35
2023-01-13T03:02:59.312Z,-4.52
2023-01-13T03:05:28.611Z,-3.63
2023-01-13T03:08:21.846Z,-3.87
2023-01-13T03:11:04.147Z,-3.73
2023-01-13T03:14:03.034Z,-4.16
2023-01-13T03:16:38.554Z,-3.71
2023-01-13T03:19:17.680Z,-4.09
2023-01-13T03:21:53.586Z,-3.84
2023-01-13T03:24:28.179Z,-3.55
2023-01-13T03:27:03.777Z,-3.45
2023-01-13T03:29:37.649Z,-3.35
2023-01-13T03:32:11.720Z,-3.48
2023-01-13T03:34:47.147Z,-4.04
2023-01-13T03:37:18.141Z,-3.92
2023-01-13T03:39:51.603Z,-4.48
2023-01-13T03:42:24.625Z,-3.78
2023-01-13T03:44:57.954Z,-4.08
2023-01-13T03:47:33.147Z,-3.91
2023-01-13T03:50:07.811Z,-3.75
2023-01-13T03:52:41.758Z,-3.25
2023-01-13T03:55:14.161Z,-3.76
2023-01-13T03:57:48.911Z,-4.16
2023-01-13T04:00:19.834Z,-3.74
2023-01-13T04:02:54.107Z,-3.33
2023-01-13T04:05:24.867Z,-3.69
2023-01-13T04:08:00.362Z,-4.49
2023-01-13T04:10:32.610Z,-4.23
2023-01-13T04:13:05.115Z,-3.96
2023-01-13T04:15:37.776Z,-4.23
2023-01-13T04:18:18.086Z,-4.61
2023-01-13T04:20:50.114Z,-4.46
2023-01-13T04:23:19.844Z,-4.28
2023-01-13T04:25:49.518Z,-4.30
2023-01-13T04:28:19.349Z,-4.21
2023-01-13T04:30:48.852Z,-4.16
2023-01-13T04:33:19.252Z,-4.95
2023-01-13T04:35:49.416Z,-3.91
2023-01-13T04:38:19.539Z,-4.44
2023-01-13T04:40:48.445Z,-3.68
2023-01-13T04:43:16.904Z,-3.70
2023-01-13T04:45:45.854Z,-4.79
2023-01-13T04:48:14.620Z,-4.53
2023-01-13T04:50:43.119Z,-4.47
2023-01-13T04:53:12.706Z,-4.23
2023-01-13T04:55:41.100Z,-3.81
2023-01-13T04:58:11.183Z,-3.44
2023-01-13T05:00:39.711Z,-4.80
2023-01-13T05:03:08.004Z,-4.20
2023-01-13T05:05:36.201Z,-4.35
2023-01-13T05:08:05.071Z,-4.15
2023-01-13T05:10:34.923Z,-4.17
2023-01-13T05:13:20.568Z,-4.04
2023-01-13T05:16:07.074Z,-4.26
2023-01-13T05:18:35.837Z,-4.58
2023-01-13T05:21:03.997Z,-4.36
2023-01-13T05:23:55.355Z,-4.62
2023-01-13T05:26:25.958Z,-4.15
2023-01-13T05:28:55.926Z,-3.93
2023-01-13T05:31:24.596Z,-3.63
2023-01-13T05:33:53.042Z,-4.15
2023-01-13T05:36:21.197Z,-3.52
2023-01-13T05:38:49.664Z,-3.74
2023-01-13T05:41:36.036Z,-3.83
2023-01-13T05:44:06.869Z,-3.70
2023-01-13T05:46:35.310Z,-3.72
2023-01-13T05:49:03.783Z,-3.84
2023-01-13T05:51:33.091Z,-3.81
2023-01-13T05:54:01.510Z,-4.01
2023-01-13T05:56:29.812Z,-3.68
2023-01-13T05:58:58.277Z,-4.07
2023-01-13T06:01:28.099Z,-3.98
2023-01-13T06:03:57.718Z,-3.86
2023-01-13T06:06:26.373Z,-4.40
2023-01-13T06:08:54.582Z,-3.34
2023-01-13T06:11:22.937Z,-3.50
2023-01-13T06:13:51.419Z,-3.79
2023-01-13T06:16:19.697Z,-3.53
2023-01-13T06:18:49.595Z,-3.98
2023-01-13T06:21:18.054Z,-3.76
2023-01-13T06:23:46.426Z,-3.46
2023-01-13T06:26:15.727Z,-4.11
2023-01-13T06:28:44.210Z,-4.26
2023-01-13T06:31:13.445Z,-4.05
2023-01-13T06:33:46.150Z,-4.04
2023-01-13T06:36:20.092Z,-4.00
2023-01-13T06:38:56.260Z,-3.69
2023-01-13T06:41:39.477Z,-2.91
2023-01-13T06:44:08.184Z,-3.55
2023-01-13T06:46:37.394Z,-4.26
2023-01-13T06:49:05.995Z,-4.79
2023-01-13T06:51:36.235Z,-3.52
2023-01-13T06:54:05.124Z,-3.08
2023-01-13T06:56:33.506Z,-3.43
2023-01-13T06:59:01.992Z,-3.76
2023-01-13T07:01:30.286Z,-3.67
2023-01-13T07:03:58.854Z,-4.11
2023-01-13T07:06:27.193Z,-4.08
2023-01-13T07:08:57.071Z,-3.27
2023-01-13T07:11:25.821Z,-3.67
2023-01-13T07:14:11.425Z,-3.91
2023-01-13T07:16:39.934Z,-4.37
2023-01-13T07:19:08.005Z,-4.18
2023-01-13T07:21:36.314Z,-4.32
2023-01-13T07:24:06.628Z,-3.46
2023-01-13T07:26:35.121Z,-3.05
2023-01-13T07:29:03.283Z,-3.09
2023-01-13T07:31:31.678Z,-3.54
2023-01-13T07:34:00.127Z,-3.90
2023-01-13T07:36:28.240Z,-3.17
2023-01-13T07:38:56.856Z,-3.76
2023-01-13T07:41:44.041Z,-3.95
2023-01-13T07:44:13.054Z,-2.76
2023-01-13T07:46:42.156Z,-2.87
2023-01-13T07:49:10.947Z,-2.93
2023-01-13T07:51:40.170Z,-3.23
2023-01-13T07:54:08.865Z,-3.66
2023-01-13T07:56:38.653Z,-3.53
2023-01-13T07:59:07.169Z,-3.11
2023-01-13T08:01:35.327Z,-2.57
2023-01-13T08:04:03.780Z,-3.19
2023-01-13T08:06:32.322Z,-3.30
2023-01-13T08:09:00.719Z,-3.44
2023-01-13T08:11:29.033Z,-2.28
2023-01-13T08:13:59.195Z,-2.96
2023-01-13T08:16:28.336Z,-3.26
2023-01-13T08:18:57.148Z,-3.54
2023-01-13T08:21:26.232Z,-2.93
2023-01-13T08:23:54.682Z,-2.90
2023-01-13T08:26:22.874Z,-2.63
2023-01-13T08:28:51.421Z,-2.42
2023-01-13T08:31:21.484Z,-2.73
2023-01-13T08:33:52.659Z,-3.20
2023-01-13T08:36:21.284Z,-2.84
2023-01-13T08:38:49.436Z,-2.92
2023-01-13T08:41:38.957Z,-3.68
2023-01-13T08:44:09.281Z,-3.69
2023-01-13T08:46:39.224Z,-3.54
2023-01-13T08:49:07.630Z,-3.23
2023-01-13T08:51:36.094Z,-2.82
2023-01-13T08:54:05.062Z,-2.94
2023-01-13T08:56:35.537Z,-2.72
2023-01-13T08:59:04.550Z,-2.88
2023-01-13T09:01:34.112Z,-3.27
2023-01-13T09:04:04.165Z,-2.24
2023-01-13T09:06:33.246Z,-1.91
2023-01-13T09:09:02.636Z,-3.04
2023-01-13T09:11:52.655Z,-3.11
2023-01-13T09:14:23.082Z,-2.50
2023-01-13T09:16:51.610Z,-2.05
2023-01-13T09:19:21.175Z,-2.53
2023-01-13T09:21:49.930Z,-2.36
2023-01-13T09:24:18.396Z,-2.67
2023-01-13T09:26:46.720Z,-1.66
2023-01-13T09:29:15.409Z,-2.17
2023-01-13T09:31:44.567Z,-2.31
2023-01-13T09:34:33.212Z,-1.82
2023-01-13T09:37:03.718Z,-2.37
2023-01-13T09:39:33.482Z,-2.50
2023-01-13T09:42:26.257Z,-2.38
2023-01-13T09:45:01.862Z,-2.47
2023-01-13T09:47:37.008Z,-2.06
2023-01-13T09:50:19.489Z,-2.50
2023-01-13T09:52:49.612Z,-1.88
2023-01-13T09:55:21.145Z,-2.95
2023-01-13T09:57:49.926Z,-2.78
2023-01-13T10:00:23.487Z,-2.52
2023-01-13T10:03:19.368Z,-2.00
2023-01-13T10:05:56.636Z,-1.96
2023-01-13T10:08:30.061Z,-2.30
2023-01-13T10:11:01.222Z,-2.58
2023-01-13T10:13:31.021Z,-1.94
2023-01-13T10:16:20.001Z,-3.32
2023-01-13T10:19:02.016Z,-2.78
2023-01-13T10:22:09.177Z,-2.18
2023-01-13T10:25:00.126Z,-2.31
2023-01-13T10:27:34.701Z,-2.30
2023-01-13T10:30:14.271Z,-1.82
2023-01-13T10:32:47.625Z,-1.77
2023-01-13T10:35:16.180Z,-1.05
2023-01-13T10:37:58.017Z,-1.17
2023-01-13T10:40:28.067Z,-1.86
2023-01-13T10:43:07.235Z,-2.23
2023-01-13T10:45:35.785Z,-1.67
2023-01-13T10:48:14.123Z,-2.64
2023-01-13T10:50:43.306Z,-2.58
2023-01-13T10:53:20.285Z,-2.73
2023-01-13T10:56:02.949Z,-2.80
2023-01-13T10:58:31.580Z,-2.76
2023-01-13T11:01:03.710Z,-2.58
2023-01-13T11:03:43.118Z,-2.72
2023-01-13T11:06:22.218Z,-2.01
2023-01-13T11:08:55.270Z,-2.43
2023-01-13T11:11:39.890Z,-2.17
2023-01-13T11:14:37.025Z,-1.74
2023-01-13T11:17:15.926Z,-2.77
2023-01-13T11:19:51.462Z,-2.59
2023-01-13T11:22:27.110Z,-2.05
2023-01-13T11:24:59.740Z,-2.53
2023-01-13T11:27:40.187Z,-2.22
2023-01-13T11:30:18.597Z,-2.26
2023-01-13T11:32:54.977Z,-2.23
2023-01-13T11:35:23.662Z,-1.67
2023-01-13T11:37:59.047Z,-3.08
2023-01-13T11:40:34.041Z,-2.67
2023-01-13T11:43:12.415Z,-2.50
2023-01-13T11:45:43.649Z,-1.91
2023-01-13T11:48:16.677Z,-1.54
2023-01-13T11:50:54.054Z,-2.32
2023-01-13T11:53:39.518Z,-2.54
2023-01-13T11:56:25.089Z,-3.03
2023-01-13T11:59:09.979Z,-2.27
2023-01-13T12:02:00.045Z,-2.61
2023-01-13T12:04:36.439Z,-2.59
2023-01-13T12:07:16.550Z,-3.05
2023-01-13T12:10:05.167Z,-2.04
2023-01-13T12:12:49.828Z,-2.59
2023-01-13T12:15:37.530Z,-2.30
2023-01-13T12:18:41.843Z,-3.26
2023-01-13T12:21:27.249Z,-2.60
2023-01-13T12:24:07.299Z,-2.76
2023-01-13T12:26:39.378Z,-2.95
2023-01-13T12:29:13.937Z,-2.95
2023-01-13T12:31:45.238Z,-2.07
2023-01-13T12:34:32.365Z,-2.22
2023-01-13T12:37:10.970Z,-2.97
2023-01-13T12:39:52.700Z,-2.22
2023-01-13T12:42:45.290Z,-2.79
2023-01-13T12:45:25.884Z,-2.53
2023-01-13T12:47:56.452Z,-2.31
2023-01-13T12:51:00.667Z,-3.18
2023-01-13T12:53:38.752Z,-3.07
2023-01-13T12:56:44.693Z,-2.66
2023-01-13T12:59:48.927Z,-2.49
2023-01-13T13:02:35.155Z,-2.59
2023-01-13T13:05:39.921Z,-2.68
2023-01-13T13:08:17.817Z,-2.64
2023-01-13T13:10:58.087Z,-2.52
2023-01-13T13:13:45.233Z,-2.87
2023-01-13T13:16:46.711Z,-2.68
2023-01-13T13:19:48.628Z,-2.56
2023-01-13T13:22:46.051Z,-2.56
2023-01-13T13:25:28.044Z,-2.20
2023-01-13T13:28:09.079Z,-2.86
2023-01-13T13:30:40.601Z,-3.06
2023-01-13T13:33:29.087Z,-2.70
2023-01-13T13:36:07.347Z,-2.55
2023-01-13T13:39:11.630Z,-3.07
2023-01-13T13:42:04.147Z,-2.19
2023-01-13T13:44:59.484Z,-2.54
2023-01-13T13:47:36.885Z,-2.56
2023-01-13T13:50:13.868Z,-2.03
2023-01-13T13:52:51.473Z,-2.45
2023-01-13T13:55:23.986Z,-2.40
2023-01-13T13:57:53.964Z,-1.92
2023-01-13T14:00:26.592Z,-2.52
2023-01-13T14:02:58.480Z,-2.01
2023-01-13T14:05:29.747Z,-2.37
2023-01-13T14:08:03.233Z,-2.51
2023-01-13T14:10:36.146Z,-2.53
2023-01-13T14:13:15.777Z,-2.58
2023-01-13T14:15:45.510Z,-1.75
2023-01-13T14:18:16.990Z,-2.36
2023-01-13T14:20:52.928Z,-2.31
2023-01-13T14:23:28.295Z,-2.33
2023-01-13T14:26:03.851Z,-2.13
2023-01-13T14:28:37.029Z,-1.87
2023-01-13T14:31:06.576Z,-2.04
2023-01-13T14:33:38.866Z,-2.34
2023-01-13T14:36:13.824Z,-2.04
2023-01-13T14:38:43.535Z,-2.20
2023-01-13T14:41:24.278Z,-3.18
2023-01-13T14:43:55.975Z,-2.40
2023-01-13T14:46:25.689Z,-2.47
2023-01-13T14:49:02.055Z,-1.93
2023-01-13T14:51:31.964Z,-2.27
2023-01-13T14:54:00.515Z,-3.02
2023-01-13T14:56:40.627Z,-2.26
2023-01-13T14:59:38.000Z,-2.05
2023-01-13T15:02:48.137Z,-2.43
2023-01-13T15:05:35.508Z,-2.05
2023-01-13T15:08:09.915Z,-2.39
2023-01-13T15:10:46.887Z,-1.96
2023-01-13T15:13:29.790Z,-3.14
2023-01-13T15:16:01.016Z,-2.80
2023-01-13T15:18:29.629Z,-2.56
2023-01-13T15:20:58.026Z,-1.98
2023-01-13T15:23:29.293Z,-2.22
2023-01-13T15:26:00.912Z,-1.89
2023-01-13T15:28:34.389Z,-2.14
2023-01-13T15:31:04.074Z,-2.23
2023-01-13T15:33:32.940Z,-2.35
2023-01-13T15:36:01.994Z,-2.35
2023-01-13T15:38:30.499Z,-1.74
2023-01-13T15:40:58.694Z,-1.72
2023-01-13T15:43:44.605Z,-2.13
2023-01-13T15:46:35.141Z,-2.36
2023-01-13T15:49:10.027Z,-2.14
2023-01-13T15:51:39.049Z,-2.59
2023-01-13T15:54:07.962Z,-2.49
2023-01-13T15:56:38.223Z,-2.01
2023-01-13T15:59:19.263Z,-2.13
2023-01-13T16:01:50.330Z,-1.61
2023-01-13T16:04:20.576Z,-1.98
2023-01-13T16:06:49.227Z,-2.07
2023-01-13T16:09:17.469Z,-2.05
2023-01-13T16:11:46.071Z,-2.37
2023-01-13T16:14:14.584Z,-1.79
2023-01-13T16:16:43.181Z,-1.84
2023-01-13T16:19:14.207Z,-1.97
2023-01-13T16:21:42.995Z,-2.18
2023-01-13T16:24:11.724Z,-1.64
2023-01-13T16:26:40.501Z,-1.91
2023-01-13T16:29:09.678Z,-2.29
2023-01-13T16:31:38.291Z,-2.00
2023-01-13T16:34:07.238Z,-1.71
2023-01-13T16:36:39.489Z,-2.65
2023-01-13T16:39:21.527Z,-2.01
2023-01-13T16:41:50.648Z,-1.93
2023-01-13T16:44:19.184Z,-2.68
2023-01-13T16:46:50.403Z,-2.44
2023-01-13T16:49:19.017Z,-1.49
2023-01-13T16:51:48.904Z,-1.84
2023-01-13T16:54:17.699Z,-1.42
2023-01-13T16:56:46.329Z,-2.06
2023-01-13T16:59:17.133Z,-1.66
2023-01-13T17:01:46.379Z,-2.11
2023-01-13T17:04:17.967Z,-2.27
2023-01-13T17:06:57.866Z,-1.42
2023-01-13T17:09:31.414Z,-1.64
2023-01-13T17:12:00.096Z,-1.49
2023-01-13T17:14:28.318Z,-2.57
2023-01-13T17:16:58.283Z,-2.45
2023-01-13T17:19:28.921Z,-1.88
2023-01-13T17:21:59.216Z,-2.14
2023-01-13T17:24:31.089Z,-1.78
2023-01-13T17:26:59.879Z,-2.02
2023-01-13T17:29:33.039Z,-2.25
2023-01-13T17:32:08.148Z,-2.64
2023-01-13T17:34:40.361Z,-1.79
2023-01-13T17:37:15.742Z,-1.92
2023-01-13T17:39:49.157Z,-1.52
2023-01-13T17:42:18.336Z,-2.49
2023-01-13T17:44:50.590Z,-1.70
2023-01-13T17:47:19.290Z,-2.01
2023-01-13T17:49:47.636Z,-2.32
2023-01-13T17:52:17.561Z,-1.56
2023-01-13T17:54:46.272Z,-1.72
2023-01-13T17:57:14.783Z,-2.26
2023-01-13T17:59:43.322Z,-2.06
2023-01-13T18:02:12.921Z,-2.38
2023-01-13T18:04:42.112Z,-1.46
2023-01-13T18:07:10.633Z,-2.30
2023-01-13T18:09:40.404Z,-1.60
2023-01-13T18:12:09.805Z,-2.35
2023-01-13T18:14:39.421Z,-1.71
2023-01-13T18:17:09.024Z,-2.03
2023-01-13T18:19:55.979Z,-2.38
2023-01-13T18:22:42.069Z,-1.89
2023-01-13T18:25:31.441Z,-2.28
2023-01-13T18:28:01.711Z,-1.57
2023-01-13T18:30:30.604Z,-1.86
2023-01-13T18:32:59.491Z,-1.48
2023-01-13T18:35:29.705Z,-1.94
2023-01-13T18:37:59.815Z,-1.32
2023-01-13T18:40:30.119Z,-1.77
2023-01-13T18:42:59.469Z,-1.77
2023-01-13T18:45:30.248Z,-1.92
2023-01-13T18:48:01.395Z,-1.98
2023-01-13T18:50:31.275Z,-1.76
2023-01-13T18:53:00.547Z,-2.40
2023-01-13T18:55:30.809Z,-1.87
2023-01-13T18:57:59.551Z,-2.20
2023-01-13T19:00:29.173Z,-1.32
2023-01-13T19:05:36.231Z,-2.38
2023-01-13T19:08:05.892Z,-2.23
2023-01-13T19:10:36.871Z,-1.86
2023-01-13T19:13:05.769Z,-1.66
2023-01-13T19:15:37.432Z,-1.45
2023-01-13T19:18:06.309Z,-1.19
2023-01-13T19:20:34.907Z,-0.87
2023-01-13T19:23:03.733Z,-0.89
2023-01-13T19:25:33.208Z,-2.11
2023-01-13T19:28:03.730Z,-2.11
2023-01-13T19:30:32.719Z,-2.01
2023-01-13T19:33:01.404Z,-1.92
2023-01-13T19:35:29.664Z,-1.85
2023-01-13T19:37:58.646Z,-2.11
2023-01-13T19:40:27.237Z,-1.69
2023-01-13T19:43:13.617Z,-2.05
2023-01-13T19:45:45.125Z,-1.10
2023-01-13T19:48:16.529Z,-2.70
2023-01-13T19:50:45.599Z,-3.42
2023-01-13T19:53:18.473Z,-2.01
2023-01-13T19:55:49.482Z,-2.41
2023-01-13T19:58:20.123Z,-2.47
2023-01-13T20:00:52.946Z,-1.98
2023-01-13T20:03:25.589Z,-2.20
2023-01-13T20:06:07.651Z,-1.67
2023-01-13T20:08:37.158Z,-2.15
2023-01-13T20:11:31.042Z,-2.04
2023-01-13T20:14:01.761Z,-1.62
2023-01-13T20:16:34.333Z,-1.89
2023-01-13T20:19:05.020Z,-1.49
2023-01-13T20:21:37.144Z,-1.37
2023-01-13T20:24:19.892Z,-1.50
2023-01-13T20:26:51.089Z,-1.49
2023-01-13T20:29:20.661Z,-1.27
2023-01-13T20:31:52.041Z,-1.39
2023-01-13T20:34:24.795Z,-1.40
2023-01-13T20:36:59.741Z,-0.90
2023-01-13T20:39:29.824Z,-1.25
2023-01-13T20:42:16.268Z,-1.36
2023-01-13T20:44:46.953Z,-1.57
2023-01-13T20:47:18.759Z,-1.50
2023-01-13T20:49:47.496Z,-1.28
2023-01-13T20:52:17.283Z,-1.27
2023-01-13T20:54:46.738Z,-0.52
2023-01-13T20:57:16.492Z,-1.69
2023-01-13T20:59:45.515Z,-0.90
2023-01-13T21:02:25.679Z,-1.11
2023-01-13T21:04:55.342Z,-0.98
2023-01-13T21:07:24.600Z,-0.55
2023-01-13T21:10:03.413Z,-1.03
2023-01-13T21:12:52.023Z,-0.87
2023-01-13T21:15:22.379Z,-0.97
2023-01-13T21:18:10.994Z,-1.25
2023-01-13T21:20:46.655Z,-2.14
2023-01-13T21:23:19.240Z,-1.53
2023-01-13T21:25:49.583Z,-1.67
2023-01-13T21:28:28.263Z,-1.57
2023-01-13T21:30:57.203Z,-1.50
2023-01-13T21:33:48.698Z,-1.48
2023-01-13T21:36:18.450Z,-1.39
2023-01-13T21:38:52.910Z,-1.15
2023-01-13T21:41:36.089Z,-0.83
2023-01-13T21:44:22.242Z,-1.16
2023-01-13T21:47:08.658Z,-1.33
2023-01-13T21:49:44.443Z,-0.82
2023-01-13T21:52:13.901Z,-2.00
2023-01-13T21:54:57.180Z,-2.10
2023-01-13T21:57:27.802Z,-1.17
2023-01-13T22:00:02.514Z,-2.13
2023-01-13T22:02:36.323Z,-1.00
2023-01-13T22:05:09.649Z,-0.89
2023-01-13T22:07:40.136Z,-1.37
2023-01-13T22:10:12.633Z,-2.39
2023-01-13T22:12:43.574Z,-1.39
2023-01-13T22:15:15.336Z,-2.01
2023-01-13T22:17:45.957Z,-1.71
2023-01-13T22:20:17.175Z,-1.11
2023-01-13T22:22:46.740Z,-0.93
2023-01-13T22:25:20.342Z,-1.57
2023-01-13T22:27:49.790Z,-1.23
2023-01-13T22:30:22.203Z,-1.05
2023-01-13T22:32:51.877Z,-0.55
2023-01-13T22:35:25.024Z,-0.67
2023-01-13T22:37:54.428Z,-0.50
2023-01-13T22:40:23.565Z,-0.66
2023-01-13T22:42:52.782Z,-1.12
2023-01-13T22:45:22.070Z,-1.94
2023-01-13T22:47:51.228Z,-1.16
2023-01-13T22:50:23.271Z,-1.20
2023-01-13T22:52:53.319Z,-0.75
2023-01-13T22:55:23.290Z,-1.27
2023-01-13T22:57:53.131Z,-1.89
2023-01-13T23:00:25.401Z,-1.38
2023-01-13T23:02:55.523Z,-1.11
2023-01-13T23:05:28.452Z,-1.25
2023-01-13T23:07:59.645Z,-1.40
2023-01-13T23:10:29.126Z,-1.18
2023-01-13T23:12:57.890Z,-1.27
2023-01-13T23:15:26.777Z,-0.78
2023-01-13T23:17:55.608Z,-0.75
2023-01-13T23:20:25.933Z,-1.29
2023-01-13T23:22:55.183Z,-1.08
2023-01-13T23:25:24.339Z,-1.96
2023-01-13T23:27:53.261Z,-1.23
2023-01-13T23:30:22.226Z,-1.40
2023-01-13T23:32:51.083Z,-1.33
2023-01-13T23:35:20.261Z,-1.52
2023-01-13T23:37:50.656Z,-0.84
2023-01-13T23:40:19.892Z,-0.71
2023-01-13T23:42:49.130Z,-0.83
2023-01-13T23:45:18.579Z,-1.01
2023-01-13T23:47:47.398Z,-1.47
2023-01-13T23:50:16.291Z,-1.05
2023-01-13T23:52:45.064Z,-1.21
2023-01-13T23:55:15.571Z,-0.84
2023-01-13T23:57:44.486Z,-0.81
